createdAt,value
2022-09-21T00:01:17.662Z,3.13
2022-09-21T00:03:44.966Z,3.57
2022-09-21T00:06:15.903Z,3.83
2022-09-21T00:08:43.220Z,3.43
2022-09-21T00:11:34.208Z,3.57
2022-09-21T00:14:04.542Z,3.80
2022-09-21T00:16:32.065Z,5.27
2022-09-21T00:18:59.697Z,3.60
2022-09-21T00:21:27.902Z,3.50
2022-09-21T00:23:55.000Z,3.30
2022-09-21T00:26:23.962Z,3.70
2022-09-21T00:28:59.250Z,3.23
2022-09-21T00:31:27.683Z,3.13
2022-09-21T00:33:54.853Z,3.30
2022-09-21T00:36:23.693Z,2.83
2022-09-21T00:38:52.654Z,3.17
2022-09-21T00:41:19.868Z,2.40
2022-09-21T00:43:49.526Z,2.80
2022-09-21T00:46:27.340Z,2.43
2022-09-21T00:48:54.388Z,2.70
2022-09-21T00:51:21.569Z,2.60
2022-09-21T00:53:53.192Z,2.63
2022-09-21T00:56:20.256Z,2.93
2022-09-21T00:58:50.990Z,7.30
2022-09-21T01:01:18.859Z,11.00
2022-09-21T01:03:50.894Z,7.77
2022-09-21T01:06:20.184Z,4.27
2022-09-21T01:08:52.676Z,9.60
2022-09-21T01:11:59.977Z,15.53
2022-09-21T01:14:53.343Z,3.80
2022-09-21T01:17:56.200Z,3.40
2022-09-21T01:21:11.214Z,4.43
2022-09-21T01:23:45.898Z,3.70
2022-09-21T01:26:34.504Z,3.40
2022-09-21T01:29:06.870Z,3.90
2022-09-21T01:31:41.951Z,3.87
2022-09-21T01:34:19.841Z,3.37
2022-09-21T01:36:49.879Z,3.17
2022-09-21T01:39:19.083Z,3.90
2022-09-21T01:41:47.770Z,3.90
2022-09-21T01:44:20.758Z,3.83
2022-09-21T01:46:48.756Z,3.60
2022-09-21T01:49:19.903Z,4.50
2022-09-21T01:51:54.276Z,5.00
2022-09-21T01:54:45.464Z,5.47
2022-09-21T01:57:21.197Z,4.60
2022-09-21T01:59:54.397Z,4.47
2022-09-21T02:02:44.245Z,4.23
2022-09-21T02:05:11.754Z,4.23
2022-09-21T02:07:39.576Z,3.93
2022-09-21T02:10:10.330Z,4.33
2022-09-21T02:12:37.580Z,3.97
2022-09-21T02:15:04.728Z,3.70
2022-09-21T02:17:44.197Z,3.87
2022-09-21T02:20:23.789Z,3.93
2022-09-21T02:23:17.685Z,4.27
2022-09-21T02:25:59.195Z,3.60
2022-09-21T02:28:28.995Z,4.00
2022-09-21T02:31:13.988Z,3.67
2022-09-21T02:33:59.484Z,3.50
2022-09-21T02:36:38.551Z,3.67
2022-09-21T02:39:13.625Z,4.17
2022-09-21T02:42:00.049Z,3.90
2022-09-21T02:44:45.648Z,4.17
2022-09-21T02:47:31.416Z,3.87
2022-09-21T02:50:16.380Z,3.70
2022-09-21T02:52:44.387Z,3.77
2022-09-21T02:55:13.224Z,3.73
2022-09-21T02:57:40.955Z,3.97
2022-09-21T03:00:08.441Z,4.83
2022-09-21T03:02:37.467Z,3.90
2022-09-21T03:05:05.105Z,4.13
2022-09-21T03:07:32.532Z,4.10
2022-09-21T03:09:59.188Z,3.53
2022-09-21T03:12:26.778Z,3.70
2022-09-21T03:14:53.556Z,3.70
2022-09-21T03:17:20.238Z,4.17
2022-09-21T03:19:46.934Z,3.67
2022-09-21T03:22:13.562Z,4.07
2022-09-21T03:24:46.178Z,3.43
2022-09-21T03:27:18.487Z,4.57
2022-09-21T03:29:45.840Z,3.70
2022-09-21T03:32:13.728Z,3.60
2022-09-21T03:34:40.883Z,3.90
2022-09-21T03:37:09.031Z,4.17
2022-09-21T03:39:36.662Z,3.70
2022-09-21T03:42:04.130Z,3.70
2022-09-21T03:44:30.968Z,4.50
2022-09-21T03:46:58.202Z,3.80
2022-09-21T03:49:25.159Z,3.90
2022-09-21T03:51:51.767Z,4.03
2022-09-21T03:54:18.438Z,4.13
2022-09-21T03:56:45.061Z,4.20
2022-09-21T03:59:14.321Z,3.40
2022-09-21T04:01:42.206Z,3.90
2022-09-21T04:04:09.198Z,4.77
2022-09-21T04:06:36.473Z,4.17
2022-09-21T04:09:03.553Z,4.53
2022-09-21T04:11:32.403Z,4.27
2022-09-21T04:13:59.825Z,4.80
2022-09-21T04:16:27.386Z,4.80
2022-09-21T04:18:54.467Z,4.90
2022-09-21T04:21:22.195Z,4.90
2022-09-21T04:23:49.872Z,5.43
2022-09-21T04:26:23.045Z,4.97
2022-09-21T04:28:50.646Z,4.80
2022-09-21T04:31:17.749Z,4.70
2022-09-21T04:33:44.957Z,4.10
2022-09-21T04:36:11.590Z,4.57
2022-09-21T04:38:38.323Z,3.80
2022-09-21T04:41:05.046Z,4.13
2022-09-21T04:43:31.680Z,3.93
2022-09-21T04:45:58.524Z,4.10
2022-09-21T04:48:25.109Z,3.90
2022-09-21T04:50:51.744Z,4.07
2022-09-21T04:53:18.386Z,4.07
2022-09-21T04:55:46.246Z,4.10
2022-09-21T04:58:12.959Z,4.83
2022-09-21T05:00:39.613Z,5.13
2022-09-21T05:03:06.408Z,4.63
2022-09-21T05:05:33.252Z,5.13
2022-09-21T05:07:59.969Z,5.27
2022-09-21T05:10:26.840Z,5.00
2022-09-21T05:12:53.517Z,5.57
2022-09-21T05:15:21.916Z,5.97
2022-09-21T05:17:48.622Z,5.80
2022-09-21T05:20:15.234Z,5.40
2022-09-21T05:22:41.869Z,5.30
2022-09-21T05:25:09.369Z,5.03
2022-09-21T05:27:37.460Z,5.50
2022-09-21T05:30:05.779Z,5.13
2022-09-21T05:33:17.477Z,5.73
2022-09-21T05:36:02.993Z,5.33
2022-09-21T05:38:29.967Z,5.17
2022-09-21T05:40:56.995Z,4.47
2022-09-21T05:43:23.885Z,4.43
2022-09-21T05:45:56.942Z,4.90
2022-09-21T05:48:37.323Z,5.10
2022-09-21T05:51:14.072Z,5.10
2022-09-21T05:53:52.795Z,4.70
2022-09-21T05:56:41.433Z,5.00
2022-09-21T05:59:27.987Z,4.07
2022-09-21T06:02:07.258Z,4.43
2022-09-21T06:04:34.228Z,4.37
2022-09-21T06:07:00.935Z,4.40
2022-09-21T06:09:27.912Z,4.77
2022-09-21T06:11:54.554Z,4.87
2022-09-21T06:14:25.482Z,4.63
2022-09-21T06:16:53.062Z,4.90
2022-09-21T06:19:19.869Z,4.83
2022-09-21T06:21:46.523Z,4.77
2022-09-21T06:24:13.156Z,4.13
2022-09-21T06:26:39.791Z,3.40
2022-09-21T06:29:06.541Z,4.07
2022-09-21T06:31:33.516Z,4.40
2022-09-21T06:34:00.585Z,4.07
2022-09-21T06:36:27.331Z,4.40
2022-09-21T06:38:54.143Z,4.57
2022-09-21T06:41:21.535Z,4.90
2022-09-21T06:43:48.702Z,4.13
2022-09-21T06:46:15.585Z,4.50
2022-09-21T06:48:42.399Z,4.30
2022-09-21T06:51:10.136Z,5.40
2022-09-21T06:53:36.788Z,4.60
2022-09-21T06:56:10.311Z,8.07
2022-09-21T06:58:37.686Z,5.47
2022-09-21T07:01:14.056Z,9.90
2022-09-21T07:03:42.208Z,6.57
2022-09-21T07:06:15.559Z,7.80
2022-09-21T07:11:29.452Z,8.43
2022-09-21T07:13:56.922Z,7.40
2022-09-21T07:16:24.192Z,8.60
2022-09-21T07:18:50.909Z,9.53
2022-09-21T07:21:17.555Z,7.40
2022-09-21T07:23:44.306Z,4.90
2022-09-21T07:26:13.449Z,4.47
2022-09-21T07:28:40.715Z,4.97
2022-09-21T07:31:13.955Z,4.93
2022-09-21T07:33:41.703Z,3.90
2022-09-21T07:36:12.004Z,5.03
2022-09-21T07:38:41.708Z,5.03
2022-09-21T07:41:10.391Z,4.33
2022-09-21T07:43:39.404Z,3.67
2022-09-21T07:46:11.258Z,4.60
2022-09-21T07:48:37.994Z,3.93
2022-09-21T07:51:06.750Z,3.33
2022-09-21T07:53:34.627Z,3.93
2022-09-21T07:56:03.635Z,3.80
2022-09-21T07:58:49.465Z,3.63
2022-09-21T08:01:16.212Z,4.13
2022-09-21T08:03:42.967Z,4.23
2022-09-21T08:06:09.898Z,3.77
2022-09-21T08:08:37.815Z,3.40
2022-09-21T08:11:05.702Z,3.50
2022-09-21T08:13:32.742Z,3.90
2022-09-21T08:16:03.108Z,4.17
2022-09-21T08:18:30.621Z,4.37
2022-09-21T08:21:00.222Z,4.47
2022-09-21T08:23:30.629Z,4.20
2022-09-21T08:26:07.886Z,3.93
2022-09-21T08:28:38.676Z,9.07
2022-09-21T08:31:08.658Z,6.70
2022-09-21T08:33:35.419Z,6.07
2022-09-21T08:36:04.268Z,5.43
2022-09-21T08:38:35.860Z,4.00
2022-09-21T08:41:30.120Z,29.53
2022-09-21T08:44:04.520Z,6.47
2022-09-21T08:46:34.635Z,9.53
2022-09-21T08:49:11.654Z,22.13
2022-09-21T08:51:45.244Z,13.33
2022-09-21T08:54:25.258Z,6.80
2022-09-21T08:57:05.075Z,3.93
2022-09-21T08:59:33.940Z,5.27
2022-09-21T09:02:26.668Z,4.33
2022-09-21T09:05:06.648Z,4.63
2022-09-21T09:08:10.143Z,3.53
2022-09-21T09:10:58.853Z,4.20
2022-09-21T09:13:58.947Z,3.40
2022-09-21T09:16:31.592Z,2.97
2022-09-21T09:19:09.825Z,3.50
2022-09-21T09:21:41.643Z,3.50
2022-09-21T09:24:17.390Z,3.00
2022-09-21T09:26:55.984Z,2.83
2022-09-21T09:29:49.466Z,3.57
2022-09-21T09:32:18.328Z,3.20
2022-09-21T09:35:02.441Z,3.03
2022-09-21T09:37:36.233Z,3.03
2022-09-21T09:40:03.576Z,3.07
2022-09-21T09:42:55.276Z,3.30
2022-09-21T09:45:48.397Z,3.77
2022-09-21T09:48:34.613Z,2.70
2022-09-21T09:51:01.441Z,3.17
2022-09-21T09:53:28.759Z,2.60
2022-09-21T09:55:58.586Z,2.50
2022-09-21T09:58:43.767Z,3.00
2022-09-21T10:01:37.686Z,2.43
2022-09-21T10:04:06.751Z,3.03
2022-09-21T10:06:34.058Z,2.83
2022-09-21T10:09:01.055Z,4.40
2022-09-21T10:11:38.471Z,3.87
2022-09-21T10:14:10.338Z,3.97
2022-09-21T10:16:43.791Z,2.93
2022-09-21T10:19:21.719Z,2.47
2022-09-21T10:21:52.373Z,16.83
2022-09-21T10:24:25.418Z,12.20
2022-09-21T10:26:56.040Z,16.90
2022-09-21T10:29:22.615Z,17.17
2022-09-21T10:31:57.261Z,6.40
2022-09-21T10:34:27.265Z,5.10
2022-09-21T10:36:57.216Z,10.67
2022-09-21T10:39:25.452Z,3.40
2022-09-21T10:42:05.133Z,3.20
2022-09-21T10:44:46.907Z,16.90
2022-09-21T10:47:40.831Z,18.80
2022-09-21T10:50:27.599Z,18.60
2022-09-21T10:53:11.226Z,17.27
2022-09-21T10:55:58.426Z,12.23
2022-09-21T10:58:34.223Z,2.63
2022-09-21T11:01:23.290Z,5.60
2022-09-21T11:03:55.883Z,3.10
2022-09-21T11:06:31.640Z,1.70
2022-09-21T11:09:07.638Z,2.37
2022-09-21T11:11:53.170Z,1.93
2022-09-21T11:14:42.652Z,2.23
2022-09-21T11:17:17.457Z,2.60
2022-09-21T11:20:04.853Z,2.67
2022-09-21T11:22:45.584Z,3.00
2022-09-21T11:25:36.545Z,2.93
2022-09-21T11:28:13.409Z,2.03
2022-09-21T11:30:56.900Z,8.93
2022-09-21T11:33:46.634Z,10.93
2022-09-21T11:36:33.702Z,7.50
2022-09-21T11:39:11.765Z,4.43
2022-09-21T11:41:58.966Z,4.33
2022-09-21T11:44:55.827Z,2.70
2022-09-21T11:47:45.814Z,3.77
2022-09-21T11:50:31.828Z,4.70
2022-09-21T11:53:20.696Z,2.77
2022-09-21T11:56:08.067Z,3.33
2022-09-21T11:58:45.589Z,4.37
2022-09-21T12:01:49.997Z,7.43
2022-09-21T12:04:28.790Z,8.70
2022-09-21T12:07:18.895Z,13.77
2022-09-21T12:10:07.523Z,5.03
2022-09-21T12:12:59.941Z,3.03
2022-09-21T12:15:33.155Z,4.67
2022-09-21T12:18:26.063Z,1.60
2022-09-21T12:21:11.602Z,1.97
2022-09-21T12:24:15.740Z,2.00
2022-09-21T12:26:47.753Z,2.00
2022-09-21T12:29:25.447Z,1.30
2022-09-21T12:32:02.843Z,2.47
2022-09-21T12:34:39.751Z,2.50
2022-09-21T12:37:12.392Z,2.23
2022-09-21T12:39:46.249Z,1.40
2022-09-21T12:42:20.661Z,1.47
2022-09-21T12:44:52.903Z,1.73
2022-09-21T12:47:35.628Z,1.77
2022-09-21T12:50:12.975Z,1.27
2022-09-21T12:52:40.575Z,1.37
2022-09-21T12:55:33.239Z,1.20
2022-09-21T12:58:21.497Z,2.00
2022-09-21T13:01:02.619Z,1.63
2022-09-21T13:03:43.815Z,1.60
2022-09-21T13:06:43.228Z,1.67
2022-09-21T13:09:14.805Z,1.53
2022-09-21T13:12:07.277Z,2.20
2022-09-21T13:14:37.335Z,1.70
2022-09-21T13:17:05.802Z,1.33
2022-09-21T13:19:35.793Z,1.00
2022-09-21T13:22:35.837Z,1.07
2022-09-21T13:25:22.760Z,1.20
2022-09-21T13:28:09.039Z,1.40
2022-09-21T13:31:18.478Z,1.83
2022-09-21T13:34:15.293Z,1.20
2022-09-21T13:36:43.219Z,1.20
2022-09-21T13:39:09.877Z,0.90
2022-09-21T13:41:52.150Z,1.40
2022-09-21T13:44:43.926Z,1.43
2022-09-21T13:47:12.078Z,0.90
2022-09-21T13:50:04.452Z,1.00
2022-09-21T13:52:46.442Z,1.00
2022-09-21T13:55:30.550Z,1.33
2022-09-21T13:58:04.693Z,1.30
2022-09-21T14:00:35.985Z,0.83
2022-09-21T14:03:17.018Z,6.30
2022-09-21T14:05:46.861Z,15.70
2022-09-21T14:08:16.542Z,29.13
2022-09-21T14:10:52.119Z,25.73
2022-09-21T14:13:43.808Z,18.20
2022-09-21T14:16:28.992Z,11.87
2022-09-21T14:18:56.394Z,9.00
2022-09-21T14:21:23.301Z,10.93
2022-09-21T14:24:19.611Z,24.83
2022-09-21T14:26:52.910Z,8.40
2022-09-21T14:29:41.699Z,4.63
2022-09-21T14:32:19.210Z,2.47
2022-09-21T14:34:48.677Z,1.97
2022-09-21T14:37:31.604Z,2.27
2022-09-21T14:40:03.160Z,2.27
2022-09-21T14:42:31.871Z,1.40
2022-09-21T14:45:01.321Z,1.43
2022-09-21T14:47:40.370Z,2.30
2022-09-21T14:50:32.232Z,1.80
2022-09-21T14:53:08.180Z,1.67
2022-09-21T14:55:59.702Z,1.83
2022-09-21T14:58:32.115Z,1.53
2022-09-21T15:01:37.576Z,1.40
2022-09-21T15:04:19.376Z,1.30
2022-09-21T15:07:31.577Z,1.50
2022-09-21T15:10:34.513Z,1.60
2022-09-21T15:13:04.974Z,1.50
2022-09-21T15:16:07.200Z,1.43
2022-09-21T15:18:40.883Z,1.47
2022-09-21T15:21:29.503Z,2.30
2022-09-21T15:23:56.843Z,1.67
2022-09-21T15:26:29.067Z,13.57
2022-09-21T15:29:18.331Z,16.27
2022-09-21T15:31:45.559Z,19.70
2022-09-21T15:34:15.104Z,45.23
2022-09-21T15:36:43.137Z,33.87
2022-09-21T15:39:30.098Z,14.93
2022-09-21T15:42:17.796Z,41.50
2022-09-21T15:44:48.412Z,25.13
2022-09-21T15:47:26.359Z,2.70
2022-09-21T15:49:53.901Z,4.20
2022-09-21T15:52:42.580Z,1.90
2022-09-21T15:55:21.431Z,2.13
2022-09-21T15:57:58.788Z,1.50
2022-09-21T16:00:32.251Z,1.30
2022-09-21T16:03:07.567Z,1.20
2022-09-21T16:05:47.375Z,1.40
2022-09-21T16:08:19.740Z,1.50
2022-09-21T16:10:46.552Z,1.43
2022-09-21T16:13:37.748Z,1.50
2022-09-21T16:16:10.165Z,1.70
2022-09-21T16:18:51.717Z,1.63
2022-09-21T16:21:26.324Z,1.30
2022-09-21T16:23:58.002Z,1.60
2022-09-21T16:26:35.930Z,1.60
2022-09-21T16:29:08.903Z,1.47
2022-09-21T16:31:36.149Z,1.60
2022-09-21T16:34:07.366Z,5.07
2022-09-21T16:36:36.336Z,43.73
2022-09-21T16:39:06.397Z,44.77
2022-09-21T16:41:43.148Z,45.63
2022-09-21T16:44:20.605Z,40.93
2022-09-21T16:46:51.529Z,7.43
2022-09-21T16:49:21.619Z,3.53
2022-09-21T16:51:49.889Z,2.87
2022-09-21T16:54:17.971Z,2.47
2022-09-21T16:56:46.401Z,2.60
2022-09-21T16:59:21.921Z,2.80
2022-09-21T17:01:55.378Z,2.67
2022-09-21T17:04:26.034Z,3.03
2022-09-21T17:06:54.053Z,2.07
2022-09-21T17:09:31.631Z,3.57
2022-09-21T17:12:01.271Z,5.37
2022-09-21T17:14:40.028Z,2.50
2022-09-21T17:17:18.418Z,2.70
2022-09-21T17:19:46.761Z,2.80
2022-09-21T17:22:22.306Z,1.70
2022-09-21T17:24:52.070Z,2.30
2022-09-21T17:27:26.497Z,1.93
2022-09-21T17:29:55.130Z,1.93
2022-09-21T17:32:23.959Z,2.20
2022-09-21T17:34:56.191Z,2.07
2022-09-21T17:37:24.020Z,1.97
2022-09-21T17:39:50.717Z,1.93
2022-09-21T17:42:21.012Z,1.73
2022-09-21T17:45:03.861Z,1.80
2022-09-21T17:47:33.210Z,2.10
2022-09-21T17:50:08.979Z,1.80
2022-09-21T17:52:54.440Z,2.00
2022-09-21T17:55:21.450Z,1.70
2022-09-21T17:58:02.836Z,2.27
2022-09-21T18:01:44.769Z,2.10
2022-09-21T18:04:11.781Z,2.03
2022-09-21T18:06:38.588Z,2.20
2022-09-21T18:09:05.730Z,2.83
2022-09-21T18:11:58.186Z,2.03
2022-09-21T18:14:34.657Z,2.23
2022-09-21T18:17:21.094Z,2.63
2022-09-21T18:20:15.661Z,3.30
2022-09-21T18:22:55.881Z,2.97
2022-09-21T18:25:47.388Z,2.20
2022-09-21T18:28:33.256Z,2.70
2022-09-21T18:31:15.732Z,2.80
2022-09-21T18:33:49.088Z,2.20
2022-09-21T18:36:26.852Z,1.80
2022-09-21T18:39:01.584Z,1.93
2022-09-21T18:41:46.107Z,2.00
2022-09-21T18:44:26.950Z,2.07
2022-09-21T18:47:27.863Z,1.90
2022-09-21T18:50:20.821Z,3.67
2022-09-21T18:53:02.601Z,3.03
2022-09-21T18:55:33.006Z,3.00
2022-09-21T18:58:00.885Z,2.40
2022-09-21T19:00:32.784Z,2.20
2022-09-21T19:03:23.612Z,2.13
2022-09-21T19:06:17.830Z,3.03
2022-09-21T19:09:12.542Z,2.53
2022-09-21T19:11:45.287Z,2.20
2022-09-21T19:14:32.276Z,2.17
2022-09-21T19:17:13.809Z,2.07
2022-09-21T19:20:00.791Z,2.10
2022-09-21T19:22:40.598Z,5.47
2022-09-21T19:25:34.159Z,11.33
2022-09-21T19:28:22.049Z,11.33
2022-09-21T19:30:58.295Z,10.50
2022-09-21T19:33:49.421Z,8.07
2022-09-21T19:36:17.440Z,8.13
2022-09-21T19:38:44.445Z,8.63
2022-09-21T19:41:28.962Z,8.23
2022-09-21T19:44:45.521Z,8.03
2022-09-21T19:47:19.214Z,7.77
2022-09-21T19:49:54.311Z,7.87
2022-09-21T19:52:30.662Z,8.37
2022-09-21T19:55:16.650Z,12.17
2022-09-21T19:58:02.368Z,12.13
2022-09-21T20:00:29.454Z,7.33
2022-09-21T20:03:04.839Z,7.13
2022-09-21T20:05:47.643Z,5.60
2022-09-21T20:08:24.809Z,6.20
2022-09-21T20:11:07.612Z,4.33
2022-09-21T20:13:40.688Z,7.43
2022-09-21T20:16:43.845Z,8.23
2022-09-21T20:19:36.447Z,9.40
2022-09-21T20:22:11.156Z,4.87
2022-09-21T20:24:59.885Z,5.57
2022-09-21T20:27:40.036Z,3.43
2022-09-21T20:30:15.565Z,3.03
2022-09-21T20:32:45.923Z,2.90
2022-09-21T20:35:20.261Z,2.30
2022-09-21T20:37:47.271Z,2.20
2022-09-21T20:40:15.440Z,3.07
2022-09-21T20:42:42.473Z,2.60
2022-09-21T20:45:14.094Z,2.80
2022-09-21T20:47:40.826Z,2.97
2022-09-21T20:50:12.693Z,8.77
2022-09-21T20:52:41.428Z,5.47
2022-09-21T20:55:10.837Z,3.70
2022-09-21T20:57:37.518Z,3.50
2022-09-21T21:00:06.992Z,4.00
2022-09-21T21:02:34.324Z,4.97
2022-09-21T21:05:01.041Z,4.37
2022-09-21T21:07:30.497Z,3.30
2022-09-21T21:09:58.725Z,3.27
2022-09-21T21:12:26.201Z,9.33
2022-09-21T21:14:53.016Z,8.23
2022-09-21T21:17:20.003Z,13.33
2022-09-21T21:19:46.621Z,14.07
2022-09-21T21:22:13.752Z,4.03
2022-09-21T21:24:41.973Z,3.20
2022-09-21T21:27:16.332Z,3.20
2022-09-21T21:29:50.054Z,2.53
2022-09-21T21:32:23.750Z,2.50
2022-09-21T21:34:52.653Z,2.60
2022-09-21T21:37:21.746Z,2.30
2022-09-21T21:39:48.390Z,2.73
2022-09-21T21:42:15.593Z,2.90
2022-09-21T21:44:42.399Z,2.83
2022-09-21T21:47:37.761Z,2.60
2022-09-21T21:49:57.206Z,2.53
2022-09-21T21:52:23.950Z,2.40
2022-09-21T21:54:50.832Z,4.97
2022-09-21T21:57:17.485Z,5.23
2022-09-21T21:59:44.487Z,7.63
2022-09-21T22:02:11.473Z,12.37
2022-09-21T22:04:38.716Z,16.40
2022-09-21T22:07:05.824Z,8.47
2022-09-21T22:09:32.837Z,12.10
2022-09-21T22:12:01.905Z,16.00
2022-09-21T22:14:28.861Z,11.57
2022-09-21T22:16:55.804Z,7.10
2022-09-21T22:19:22.469Z,5.40
2022-09-21T22:21:53.806Z,5.03
2022-09-21T22:24:21.720Z,5.17
2022-09-21T22:26:48.713Z,4.73
2022-09-21T22:29:17.218Z,5.17
2022-09-21T22:31:49.603Z,18.53
2022-09-21T22:34:16.921Z,19.43
2022-09-21T22:36:44.077Z,17.07
2022-09-21T22:39:12.173Z,7.37
2022-09-21T22:41:41.333Z,6.40
2022-09-21T22:44:08.943Z,4.13
2022-09-21T22:46:36.649Z,4.13
2022-09-21T22:49:03.875Z,3.67
2022-09-21T22:51:30.793Z,8.40
2022-09-21T22:53:57.967Z,16.70
2022-09-21T22:56:27.220Z,4.30
2022-09-21T22:58:56.015Z,3.00
2022-09-21T23:01:25.870Z,2.77
2022-09-21T23:03:55.796Z,2.60
2022-09-21T23:06:26.570Z,3.03
2022-09-21T23:08:56.183Z,3.10
2022-09-21T23:11:31.714Z,2.70
2022-09-21T23:13:59.341Z,3.00
2022-09-21T23:16:27.960Z,3.20
2022-09-21T23:18:54.857Z,3.60
2022-09-21T23:21:24.690Z,3.17
2022-09-21T23:23:59.863Z,4.40
2022-09-21T23:26:28.459Z,3.30
2022-09-21T23:29:00.489Z,2.60
2022-09-21T23:31:28.299Z,2.60
2022-09-21T23:33:57.753Z,2.60
2022-09-21T23:36:27.769Z,2.60
2022-09-21T23:38:55.184Z,2.87
2022-09-21T23:41:27.066Z,2.20
2022-09-21T23:43:54.476Z,2.47
2022-09-21T23:46:24.470Z,2.83
2022-09-21T23:48:51.736Z,2.50
2022-09-21T23:51:18.715Z,2.73
2022-09-21T23:53:46.035Z,2.63
2022-09-21T23:56:18.008Z,3.23
2022-09-21T23:58:45.468Z,3.50
